Metar Report
Metar
METAR KN23 250356Z AUTO 00000KT 2SM BR CLR 17/MM A3014 A02 9
METAR KN23 250256Z AUTO 00000KT 1 3/4SM BR VV007 18/MM A3014 A02 8
METAR KN23 250156Z AUTO 00000KT 7SM CLR 20/20 A3013 A02 7
METAR KN23 250056Z AUTO 00000KT 10SM CLR 20/20 A3012 A02 6
METAR KN23 242356Z AUTO 00000KT 10SM CLR 23/23 A3011 A02 5
METAR KN23 242256Z AUTO 00000KT 10SM CLR 24/19 A3009 A02 4
METAR KN23 242156Z AUTO 00000KT 10SM CLR 28/18 A3008 A02 3
METAR KN23 242056Z AUTO 02004KT 10SM CLR 31/19 A3008 A02 2
METAR KN23 241956Z AUTO 01004KT 10SM CLR 31/19 A3009 A02 1
METAR KN23 241856Z AUTO 06003KT 10SM CLR 31/19 A3011 A02 0
METAR KN23 241756Z AUTO 07004KT 10SM CLR 30/19 A3012 A02 69
METAR KN23 241656Z AUTO 00000KT 10SM CLR 27/18 A3015 A02 68
METAR KN23 241556Z AUTO 09003KT 10SM CLR 26/19 A3016 A02 67
METAR KN23 241456Z AUTO 00000KT 10SM CLR 23/21 A3017 A02 66
METAR KN23 241356Z AUTO 00000KT 10SM CLR 17/17 A3018 A02 65
METAR KN23 241256Z AUTO 00000KT 1/2SM FG OVC001 14/14 A3018 A02 64
METAR KN23 241156Z AUTO 00000KT M1/4SM FG OVC001 14/14 A3018 A02 63
METAR KN23 241056Z AUTO 00000KT M1/4SM FG OVC001 14/14 A3018 A02 62
METAR KN23 240956Z AUTO 00000KT 1SM BR OVC001 14/14 A3017 A02 61
METAR KN23 240856Z AUTO 00000KT M1/4SM FG OVC001 14/14 A3016 A02 60
METAR KN23 240756Z AUTO 00000KT 1/2SM FG OVC003 14/14 A3015 A02 59
METAR KN23 240656Z AUTO 00000KT 1/4SM FG OVC003 13/MM A3015 A02 58
METAR KN23 240556Z AUTO 00000KT 1/4SM FG OVC001 14/MM A3015 A02 57
METAR KN23 240456Z AUTO 00000KT 2SM BR CLR 14/MM A3014 A02 56
METAR KN23 240356Z AUTO 00000KT 4SM HZ CLR 15/MM A3015 A02 55
METAR KN23 240256Z AUTO 00000KT 5SM HZ CLR 16/MM A3015 A02 54
METAR KN23 240156Z AUTO 00000KT 10SM CLR 16/16 A3013 A02 53
METAR KN23 240056Z AUTO 00000KT 10SM CLR 17/17 A3012 A02 52
METAR KN23 232356Z AUTO 00000KT 10SM CLR 20/19 A3011 A02 51
METAR KN23 232256Z AUTO 00000KT 10SM CLR 23/17 A3010 A02 50
METAR KN23 232156Z AUTO 00000KT 10SM CLR 26/15 A3009 A02 49
METAR KN23 232056Z AUTO 05003KT 10SM CLR 27/14 A3008 A02 48
METAR KN23 231956Z AUTO 03005KT 10SM CLR 28/14 A3009 A02 47
METAR KN23 231856Z AUTO 02007KT 10SM CLR 28/12 A3011 A02 46
METAR KN23 231756Z AUTO 00000KT 10SM CLR 27/14 A3012 A02 45
METAR KN23 231656Z AUTO 00000KT 10SM CLR 25/14 A3013 A02 44
METAR KN23 231556Z AUTO 00000KT 10SM CLR 23/15 A3014 A02 43
METAR KN23 231456Z AUTO 00000KT 10SM CLR 20/16 A3016 A02 42
METAR KN23 231356Z AUTO 00000KT 10SM CLR 13/13 A3018 A02 41
METAR KN23 231256Z AUTO 00000KT 1SM BR OVC001 09/09 A3018 A02 40
METAR KN23 231156Z AUTO 00000KT 1/4SM FG OVC001 09/09 A3017 A02 39
METAR KN23 231056Z AUTO 00000KT M1/4SM FG OVC001 09/09 A3014 A02 38
METAR KN23 230956Z AUTO 00000KT 1/4SM FG OVC001 09/09 A3011 A02 37
METAR KN23 230856Z AUTO 00000KT 1/2SM FG BKN001 09/09 A3008 A02 36
METAR KN23 230756Z AUTO 00000KT 5SM HZ CLR 09/MM A3011 A02 35
METAR KN23 230656Z AUTO 00000KT 2 1/2SM BR CLR 09/MM A3011 A02 34
METAR KN23 230556Z AUTO 00000KT 10SM CLR 09/MM A3011 A02 33
METAR KN23 230456Z AUTO 00000KT 5SM HZ CLR 10/MM A3012 A02 32
METAR KN23 230356Z AUTO 00000KT 10SM CLR 11/11 A3011 A02 31
METAR KN23 230256Z AUTO 00000KT 10SM CLR 12/12 A3012 A02 30
METAR KN23 230156Z AUTO 00000KT 10SM CLR 12/12 A3011 A02 29
METAR KN23 230056Z AUTO 00000KT 10SM CLR 13/12 A3010 A02 28
METAR KN23 222356Z AUTO 00000KT 10SM CLR 14/12 A3009 A02 27
METAR KN23 222256Z AUTO 00000KT 10SM CLR 18/12 A3007 A02 26
METAR KN23 222156Z AUTO 00000KT 10SM CLR 23/07 A3007 A02 25
METAR KN23 222056Z AUTO 01003KT 10SM CLR 24/07 A3007 A02 24
METAR KN23 221956Z AUTO 01007KT 10SM CLR 26/07 A3007 A02 23
METAR KN23 221856Z AUTO 05005KT 10SM CLR 26/10 A3008 A02 22
METAR KN23 221756Z AUTO 00000KT 10SM CLR 24/11 A3010 A02 21
METAR KN23 221656Z AUTO 02003KT 10SM CLR 23/12 A3012 A02 20
METAR KN23 221556Z AUTO 00000KT 10SM CLR 22/14 A3013 A02 19
METAR KN23 221456Z AUTO 05003KT 10SM CLR 19/16 A3015 A02 18
METAR KN23 221356Z AUTO 00000KT 10SM OVC003 14/14 A3015 A02 17
METAR KN23 221256Z AUTO 00000KT 5SM BR OVC003 13/13 A3015 A02 16
METAR KN23 221156Z AUTO 00000KT 1 3/4SM BR OVC001 13/13 A3014 A02 15
METAR KN23 221056Z AUTO 00000KT 3/4SM BR OVC001 13/13 A3013 A02 14
METAR KN23 220956Z AUTO 00000KT 3SM BR OVC001 14/14 A3012 A02 13
METAR KN23 220856Z AUTO 00000KT 3SM BR OVC001 14/14 A3012 A02 12
METAR KN23 220756Z AUTO 00000KT 1/2SM FG OVC001 15/MM A3011 A02 11
METAR KN23 220656Z AUTO 00000KT 1/2SM FG OVC001 14/MM A3011 A02 10